createdAt,value
2016-10-24T00:00:41.014Z,1004.81
2016-10-24T00:01:40.863Z,1004.79
2016-10-24T00:02:40.879Z,1004.75
2016-10-24T00:03:40.819Z,1004.66
2016-10-24T00:04:40.773Z,1004.66
2016-10-24T00:05:41.051Z,1004.62
2016-10-24T00:06:40.708Z,1004.61
2016-10-24T00:08:40.655Z,1004.69
2016-10-24T00:09:40.614Z,1004.7
2016-10-24T00:10:40.602Z,1004.76
2016-10-24T00:11:40.558Z,1004.81
2016-10-24T00:12:40.524Z,1004.79
2016-10-24T00:13:40.494Z,1004.79
2016-10-24T00:14:40.475Z,1004.76
2016-10-24T00:15:40.505Z,1004.73
2016-10-24T00:16:40.413Z,1004.76
2016-10-24T00:17:40.382Z,1004.77
2016-10-24T00:18:40.348Z,1004.72
2016-10-24T00:19:40.336Z,1004.73
2016-10-24T00:20:40.300Z,1004.73
2016-10-24T00:22:40.240Z,1004.65
2016-10-24T00:23:40.234Z,1004.63
2016-10-24T00:24:40.217Z,1004.61
2016-10-24T00:26:40.107Z,1004.67
2016-10-24T00:27:40.084Z,1004.75
2016-10-24T00:28:40.115Z,1004.81
2016-10-24T00:29:40.076Z,1004.79
2016-10-24T00:30:39.989Z,1004.8
2016-10-24T00:31:39.978Z,1004.79
2016-10-24T00:32:39.959Z,1004.79
2016-10-24T00:33:39.897Z,1004.83
2016-10-24T00:34:39.884Z,1004.81
2016-10-24T00:35:40.219Z,1004.78
2016-10-24T00:36:39.849Z,1004.75
2016-10-24T00:37:39.766Z,1004.67
2016-10-24T00:38:39.740Z,1004.62
2016-10-24T00:39:39.722Z,1004.67
2016-10-24T00:40:40.199Z,1004.65
2016-10-24T00:41:39.656Z,1004.66
2016-10-24T00:42:39.617Z,1004.67
2016-10-24T00:43:39.597Z,1004.67
2016-10-24T00:44:39.556Z,1004.7
2016-10-24T00:45:39.540Z,1004.69
2016-10-24T00:46:39.505Z,1004.75
2016-10-24T00:47:39.464Z,1004.76
2016-10-24T00:48:39.484Z,1004.81
2016-10-24T00:49:39.422Z,1004.79
2016-10-24T00:50:39.375Z,1004.84
2016-10-24T00:51:39.352Z,1004.82
2016-10-24T00:53:39.336Z,1004.85
2016-10-24T00:54:39.255Z,1004.8
2016-10-24T00:55:39.301Z,1004.84
2016-10-24T00:56:39.200Z,1004.84
2016-10-24T00:57:39.171Z,1004.87
2016-10-24T00:58:39.239Z,1004.86
2016-10-24T00:59:39.099Z,1004.91
2016-10-24T01:00:39.076Z,1004.92
2016-10-24T01:01:39.040Z,1004.94
2016-10-24T01:02:39.312Z,1004.92
2016-10-24T01:03:38.981Z,1004.96
2016-10-24T01:04:38.957Z,1004.95
2016-10-24T01:05:38.924Z,1004.92
2016-10-24T01:07:38.913Z,1004.91
2016-10-24T01:08:38.833Z,1004.9
2016-10-24T01:09:39.505Z,1004.9
2016-10-24T01:10:38.779Z,1004.89
2016-10-24T01:11:38.742Z,1004.92
2016-10-24T01:12:38.711Z,1004.96
2016-10-24T01:13:38.796Z,1004.96
2016-10-24T01:14:38.667Z,1004.99
2016-10-24T01:15:38.620Z,1005.04
2016-10-24T01:16:38.997Z,1005.03
2016-10-24T01:17:38.571Z,1005.04
2016-10-24T01:18:38.527Z,1005.02
2016-10-24T01:19:38.494Z,1005.01
2016-10-24T01:20:38.465Z,1005
2016-10-24T01:21:38.445Z,1005.01
2016-10-24T01:22:38.576Z,1005.02
2016-10-24T01:23:38.377Z,1005.06
2016-10-24T01:24:38.346Z,1005.04
2016-10-24T01:25:38.326Z,1005.09
2016-10-24T01:26:38.362Z,1005.11
2016-10-24T01:27:38.319Z,1005.1
2016-10-24T01:28:38.233Z,1005.16
2016-10-24T01:29:38.197Z,1005.15
2016-10-24T01:30:38.252Z,1005.1
2016-10-24T01:31:38.188Z,1005.11
2016-10-24T01:32:38.119Z,1005.11
2016-10-24T01:33:38.074Z,1005.12
2016-10-24T01:34:38.043Z,1005.11
2016-10-24T01:35:38.511Z,1005.14
2016-10-24T01:37:37.961Z,1005.18
2016-10-24T01:39:37.917Z,1005.15
2016-10-24T01:41:37.830Z,1005.24
2016-10-24T01:42:37.808Z,1005.26
2016-10-24T01:43:37.773Z,1005.31
2016-10-24T01:44:37.742Z,1005.33
2016-10-24T01:45:37.719Z,1005.34
2016-10-24T01:46:37.684Z,1005.27
2016-10-24T01:47:37.648Z,1005.27
2016-10-24T01:48:37.625Z,1005.24
2016-10-24T01:49:37.588Z,1005.16
2016-10-24T01:50:37.612Z,1005.14
2016-10-24T01:51:37.539Z,1005.07
2016-10-24T01:52:37.505Z,1005
2016-10-24T01:53:37.484Z,1004.95
2016-10-24T01:54:37.442Z,1004.88
2016-10-24T01:55:37.411Z,1004.86
2016-10-24T01:56:37.385Z,1004.81
2016-10-24T01:57:37.345Z,1004.75
2016-10-24T01:58:37.397Z,1004.7
2016-10-24T02:00:37.261Z,1004.6
2016-10-24T02:02:37.208Z,1004.49
2016-10-24T02:04:37.488Z,1004.46
2016-10-24T02:05:37.107Z,1004.52
2016-10-24T02:06:37.107Z,1004.45
2016-10-24T02:07:37.053Z,1004.5
2016-10-24T02:08:37.020Z,1004.48
2016-10-24T02:09:36.993Z,1004.48
2016-10-24T02:10:37.021Z,1004.51
2016-10-24T02:11:36.936Z,1004.49
2016-10-24T02:12:36.958Z,1004.51
2016-10-24T02:13:36.862Z,1004.52
2016-10-24T02:14:36.840Z,1004.54
2016-10-24T02:15:36.814Z,1004.58
2016-10-24T02:16:36.778Z,1004.64
2016-10-24T02:17:36.754Z,1004.68
2016-10-24T02:18:36.735Z,1004.7
2016-10-24T02:19:36.705Z,1004.7
2016-10-24T02:20:36.668Z,1004.72
2016-10-24T02:21:36.631Z,1004.75
2016-10-24T02:22:36.648Z,1004.77
2016-10-24T02:23:36.579Z,1004.73
2016-10-24T02:24:36.585Z,1004.79
2016-10-24T02:25:36.509Z,1004.79
2016-10-24T02:26:36.486Z,1004.86
2016-10-24T02:28:36.423Z,1004.91
2016-10-24T02:29:36.382Z,1004.94
2016-10-24T02:30:36.354Z,1004.9
2016-10-24T02:31:36.319Z,1004.95
2016-10-24T02:32:36.343Z,1004.94
2016-10-24T02:33:36.264Z,1004.93
2016-10-24T02:34:36.241Z,1004.96
2016-10-24T02:36:36.827Z,1004.97
2016-10-24T02:37:36.193Z,1004.99
2016-10-24T02:38:36.108Z,1005
2016-10-24T02:39:36.079Z,1004.96
2016-10-24T02:41:36.028Z,1005.01
2016-10-24T02:42:36.023Z,1005.01
2016-10-24T02:43:35.961Z,1005.04
2016-10-24T02:44:35.931Z,1005.12
2016-10-24T02:45:35.907Z,1005.15
2016-10-24T02:46:35.869Z,1005.19
2016-10-24T02:47:35.841Z,1005.18
2016-10-24T02:48:35.809Z,1005.18
2016-10-24T02:49:35.779Z,1005.17
2016-10-24T02:50:35.749Z,1005.12
2016-10-24T02:51:35.730Z,1005.08
2016-10-24T02:52:35.785Z,1005.05
2016-10-24T02:53:35.663Z,1005.07
2016-10-24T02:54:35.621Z,1005.05
2016-10-24T02:55:35.596Z,1005.09
2016-10-24T02:56:35.580Z,1005.13
2016-10-24T02:57:35.679Z,1005.16
2016-10-24T02:58:35.527Z,1005.13
2016-10-24T02:59:35.477Z,1005.06
2016-10-24T03:00:35.448Z,1005.01
2016-10-24T03:01:35.420Z,1005
2016-10-24T03:02:35.391Z,1005.01
2016-10-24T03:03:35.356Z,1004.98
2016-10-24T03:04:35.330Z,1004.91
2016-10-24T03:05:35.304Z,1004.84
2016-10-24T03:06:35.286Z,1004.89
2016-10-24T03:07:35.237Z,1004.89
2016-10-24T03:08:35.230Z,1004.94
2016-10-24T03:09:35.239Z,1004.94
2016-10-24T03:10:35.314Z,1004.96
2016-10-24T03:11:35.115Z,1004.97
2016-10-24T03:12:35.093Z,1004.93
2016-10-24T03:13:35.055Z,1004.95
2016-10-24T03:14:35.075Z,1004.88
2016-10-24T03:15:35.002Z,1004.92
2016-10-24T03:16:35.330Z,1004.98
2016-10-24T03:17:34.940Z,1005.01
2016-10-24T03:18:34.933Z,1005.04
2016-10-24T03:19:34.879Z,1005.02
2016-10-24T03:20:35.207Z,1004.95
2016-10-24T03:21:34.830Z,1004.87
2016-10-24T03:22:34.794Z,1004.85
2016-10-24T03:23:34.758Z,1004.87
2016-10-24T03:24:34.717Z,1004.83
2016-10-24T03:25:34.697Z,1004.84
2016-10-24T03:26:34.663Z,1004.84
2016-10-24T03:27:34.639Z,1004.86
2016-10-24T03:28:34.702Z,1004.86
2016-10-24T03:29:34.574Z,1004.93
2016-10-24T03:30:36.403Z,1004.97
2016-10-24T03:31:34.516Z,1004.98
2016-10-24T03:32:34.516Z,1005.05
2016-10-24T03:33:34.452Z,1005.07
2016-10-24T03:34:34.434Z,1005.02
2016-10-24T03:35:34.744Z,1004.87
2016-10-24T03:36:34.413Z,1004.76
2016-10-24T03:37:34.332Z,1004.66
2016-10-24T03:38:34.305Z,1004.55
2016-10-24T03:39:34.276Z,1004.48
2016-10-24T03:40:34.242Z,1004.45
2016-10-24T03:42:34.183Z,1004.34
2016-10-24T03:43:34.156Z,1004.32
2016-10-24T03:44:34.123Z,1004.35
2016-10-24T03:45:34.111Z,1004.41
2016-10-24T03:46:34.065Z,1004.47
2016-10-24T03:47:34.039Z,1004.52
2016-10-24T03:48:34.037Z,1004.62
2016-10-24T03:49:34.083Z,1004.58
2016-10-24T03:50:33.949Z,1004.65
2016-10-24T03:51:33.930Z,1004.66
2016-10-24T03:53:33.865Z,1004.62
2016-10-24T03:54:33.819Z,1004.68
2016-10-24T03:55:33.819Z,1004.7
2016-10-24T03:56:33.759Z,1004.7
2016-10-24T03:57:33.723Z,1004.76
2016-10-24T03:58:33.705Z,1004.81
2016-10-24T03:59:33.788Z,1004.85
2016-10-24T04:00:34.001Z,1004.95
2016-10-24T04:01:33.611Z,1005.03
2016-10-24T04:02:33.572Z,1005
2016-10-24T04:03:33.559Z,1004.96
2016-10-24T04:04:33.513Z,1005.02
2016-10-24T04:05:33.494Z,1005.1
2016-10-24T04:06:33.460Z,1005.16
2016-10-24T04:07:33.452Z,1005.19
2016-10-24T04:08:33.403Z,1005.26
2016-10-24T04:09:33.370Z,1005.3
2016-10-24T04:10:33.343Z,1005.27
2016-10-24T04:11:33.307Z,1005.26
2016-10-24T04:12:33.282Z,1005.24
2016-10-24T04:13:33.254Z,1005.21
2016-10-24T04:14:33.261Z,1005.18
2016-10-24T04:15:33.185Z,1005.16
2016-10-24T04:17:33.126Z,1005.02
2016-10-24T04:18:33.099Z,1005
2016-10-24T04:19:33.216Z,1004.88
2016-10-24T04:20:33.039Z,1004.83
2016-10-24T04:21:33.010Z,1004.78
2016-10-24T04:22:33.028Z,1004.77
2016-10-24T04:23:32.954Z,1004.77
2016-10-24T04:24:32.913Z,1004.77
2016-10-24T04:25:32.883Z,1004.83
2016-10-24T04:26:33.017Z,1004.87
2016-10-24T04:27:32.823Z,1004.86
2016-10-24T04:28:32.805Z,1004.96
2016-10-24T04:29:32.778Z,1004.98
2016-10-24T04:30:32.798Z,1005
2016-10-24T04:31:32.701Z,1005.06
2016-10-24T04:32:32.669Z,1005.11
2016-10-24T04:33:32.641Z,1005.16
2016-10-24T04:34:32.616Z,1005.14
2016-10-24T04:35:32.613Z,1005.2
2016-10-24T04:37:32.519Z,1005.16
2016-10-24T04:39:32.460Z,1005.16
2016-10-24T04:40:32.433Z,1005.16
2016-10-24T04:41:32.403Z,1005.17
2016-10-24T04:42:32.379Z,1005.17
2016-10-24T04:43:32.353Z,1005.19
2016-10-24T04:44:32.310Z,1005.14
2016-10-24T04:45:32.287Z,1005.19
2016-10-24T04:46:32.254Z,1005.24
2016-10-24T04:47:32.221Z,1005.27
2016-10-24T04:48:32.192Z,1005.34
2016-10-24T04:49:32.208Z,1005.38
2016-10-24T04:50:32.480Z,1005.42
2016-10-24T04:51:32.128Z,1005.4
2016-10-24T04:52:32.070Z,1005.4
2016-10-24T04:53:32.076Z,1005.42
2016-10-24T04:54:32.003Z,1005.44
2016-10-24T04:55:31.984Z,1005.45
2016-10-24T04:56:31.953Z,1005.49
2016-10-24T04:57:31.926Z,1005.54
2016-10-24T04:58:31.889Z,1005.57
2016-10-24T04:59:31.952Z,1005.68
2016-10-24T05:00:32.698Z,1005.68
2016-10-24T05:01:31.824Z,1005.69
2016-10-24T05:02:31.775Z,1005.69
2016-10-24T05:03:31.735Z,1005.62
2016-10-24T05:04:31.761Z,1005.65
2016-10-24T05:05:31.690Z,1005.66
2016-10-24T05:06:31.645Z,1005.65
2016-10-24T05:07:31.616Z,1005.62
2016-10-24T05:08:31.584Z,1005.62
2016-10-24T05:09:31.566Z,1005.64
2016-10-24T05:10:31.538Z,1005.64
2016-10-24T05:12:31.460Z,1005.72
2016-10-24T05:13:31.439Z,1005.76
2016-10-24T05:14:31.521Z,1005.77
2016-10-24T05:15:31.378Z,1005.75
2016-10-24T05:16:31.346Z,1005.72
2016-10-24T05:17:31.323Z,1005.67
2016-10-24T05:18:31.314Z,1005.62
2016-10-24T05:19:31.299Z,1005.57
2016-10-24T05:21:31.211Z,1005.41
2016-10-24T05:22:31.168Z,1005.4
2016-10-24T05:23:31.230Z,1005.42
2016-10-24T05:24:31.166Z,1005.46
2016-10-24T05:25:31.104Z,1005.54
2016-10-24T05:26:31.042Z,1005.56
2016-10-24T05:27:31.013Z,1005.59
2016-10-24T05:28:30.994Z,1005.59
2016-10-24T05:29:30.955Z,1005.63
2016-10-24T05:30:30.927Z,1005.69
2016-10-24T05:32:30.865Z,1005.44
2016-10-24T05:34:30.809Z,1005.14
2016-10-24T05:35:30.836Z,1005.06
2016-10-24T05:36:30.745Z,1005.02
2016-10-24T05:37:30.730Z,1005.02
2016-10-24T05:38:30.688Z,1005.03
2016-10-24T05:39:30.649Z,1005.04
2016-10-24T05:41:30.589Z,1004.97
2016-10-24T05:42:30.567Z,1005.01
2016-10-24T05:43:30.527Z,1005.01
2016-10-24T05:44:30.503Z,1005.07
2016-10-24T05:45:30.471Z,1005.13
2016-10-24T05:46:30.445Z,1005.16
2016-10-24T05:47:30.425Z,1005.19
2016-10-24T05:48:30.385Z,1005.24
2016-10-24T05:49:30.350Z,1005.25
2016-10-24T05:50:30.323Z,1005.31
2016-10-24T05:51:30.291Z,1005.33
2016-10-24T05:52:30.310Z,1005.36
2016-10-24T05:54:30.201Z,1005.37
2016-10-24T05:56:30.140Z,1005.37
2016-10-24T05:57:30.106Z,1005.31
2016-10-24T05:58:30.093Z,1005.23
2016-10-24T05:59:30.052Z,1005.16
2016-10-24T06:00:30.020Z,1005.06
2016-10-24T06:01:30.006Z,1005
2016-10-24T06:02:29.966Z,1004.93
2016-10-24T06:03:29.948Z,1004.98
2016-10-24T06:04:29.906Z,1004.97
2016-10-24T06:05:29.871Z,1004.98
2016-10-24T06:06:29.838Z,1005.01
2016-10-24T06:07:29.813Z,1005.03
2016-10-24T06:08:29.872Z,1005.06
2016-10-24T06:10:29.755Z,1005.07
2016-10-24T06:11:29.700Z,1005.1
2016-10-24T06:12:29.657Z,1005.11
2016-10-24T06:13:29.660Z,1005.11
2016-10-24T06:14:29.601Z,1005.09
2016-10-24T06:15:29.583Z,1005.14
2016-10-24T06:16:29.553Z,1005.11
2016-10-24T06:17:29.518Z,1005.17
2016-10-24T06:18:29.477Z,1005.21
2016-10-24T06:19:29.449Z,1005.22
2016-10-24T06:20:29.491Z,1005.2
2016-10-24T06:21:29.439Z,1005.21
2016-10-24T06:22:29.429Z,1005.12
2016-10-24T06:23:29.340Z,1005.15
2016-10-24T06:24:29.312Z,1005.14
2016-10-24T06:25:29.278Z,1005.18
2016-10-24T06:26:29.246Z,1005.28
2016-10-24T06:27:29.222Z,1005.35
2016-10-24T06:28:29.245Z,1005.42
2016-10-24T06:29:29.149Z,1005.44
2016-10-24T06:30:29.181Z,1005.38
2016-10-24T06:31:29.187Z,1005.36
2016-10-24T06:32:29.088Z,1005.31
2016-10-24T06:33:29.037Z,1005.3
2016-10-24T06:34:29.006Z,1005.27
2016-10-24T06:35:29.019Z,1005.33
2016-10-24T06:37:28.911Z,1005.44
2016-10-24T06:38:28.873Z,1005.49
2016-10-24T06:39:28.851Z,1005.4
2016-10-24T06:42:28.765Z,1005.41
2016-10-24T06:43:28.742Z,1005.38
2016-10-24T06:44:28.709Z,1005.36
2016-10-24T06:45:29.491Z,1005.36
2016-10-24T06:47:28.622Z,1005.36
2016-10-24T06:48:28.627Z,1005.38
2016-10-24T06:49:28.550Z,1005.4
2016-10-24T06:50:28.526Z,1005.39
2016-10-24T06:51:28.495Z,1005.42
2016-10-24T06:52:28.473Z,1005.39
2016-10-24T06:53:28.513Z,1005.42
2016-10-24T06:54:28.400Z,1005.52
2016-10-24T06:55:28.362Z,1005.48
2016-10-24T06:56:28.341Z,1005.52
2016-10-24T06:57:28.316Z,1005.54
2016-10-24T06:58:28.274Z,1005.53
2016-10-24T06:59:28.251Z,1005.55
2016-10-24T07:00:28.224Z,1005.53
2016-10-24T07:01:28.338Z,1005.53
2016-10-24T07:02:28.165Z,1005.43
2016-10-24T07:04:28.160Z,1005.37
2016-10-24T07:05:28.077Z,1005.41
2016-10-24T07:06:28.059Z,1005.38
2016-10-24T07:07:28.016Z,1005.38
2016-10-24T07:08:27.997Z,1005.44
2016-10-24T07:09:27.947Z,1005.36
2016-10-24T07:10:27.913Z,1005.31
2016-10-24T07:11:27.894Z,1005.27
2016-10-24T07:12:27.856Z,1005.33
2016-10-24T07:13:27.836Z,1005.35
2016-10-24T07:14:27.802Z,1005.35
2016-10-24T07:15:27.821Z,1005.41
2016-10-24T07:16:27.766Z,1005.39
2016-10-24T07:17:28.069Z,1005.37
2016-10-24T07:19:27.667Z,1005.32
2016-10-24T07:20:28.011Z,1005.31
2016-10-24T07:21:27.615Z,1005.32
2016-10-24T07:22:27.567Z,1005.36
2016-10-24T07:23:27.547Z,1005.37
2016-10-24T07:24:27.506Z,1005.4
2016-10-24T07:25:27.497Z,1005.42
2016-10-24T07:26:27.435Z,1005.43
2016-10-24T07:27:27.470Z,1005.42
2016-10-24T07:28:27.384Z,1005.43
2016-10-24T07:29:27.397Z,1005.48
2016-10-24T07:30:27.819Z,1005.5
2016-10-24T07:31:27.308Z,1005.48
2016-10-24T07:32:27.321Z,1005.54
2016-10-24T07:33:27.246Z,1005.51
2016-10-24T07:34:27.231Z,1005.47
2016-10-24T07:35:27.176Z,1005.47
2016-10-24T07:36:27.140Z,1005.43
2016-10-24T07:37:27.106Z,1005.39
2016-10-24T07:38:27.084Z,1005.44
2016-10-24T07:39:27.048Z,1005.4
2016-10-24T07:40:27.828Z,1005.37
2016-10-24T07:41:27.351Z,1005.41
2016-10-24T07:42:26.961Z,1005.48
2016-10-24T07:43:26.955Z,1005.51
2016-10-24T07:44:26.908Z,1005.46
2016-10-24T07:46:26.847Z,1005.47
2016-10-24T07:47:26.807Z,1005.51
2016-10-24T07:48:26.796Z,1005.57
2016-10-24T07:50:26.724Z,1005.5
2016-10-24T07:51:26.688Z,1005.5
2016-10-24T07:52:26.671Z,1005.55
2016-10-24T07:53:26.640Z,1005.51
2016-10-24T07:54:26.654Z,1005.53
2016-10-24T07:55:26.786Z,1005.5
2016-10-24T07:57:26.520Z,1005.44
2016-10-24T07:58:26.490Z,1005.38
2016-10-24T07:59:26.461Z,1005.39
2016-10-24T08:00:26.423Z,1005.36
2016-10-24T08:01:26.400Z,1005.33
2016-10-24T08:02:26.370Z,1005.32
2016-10-24T08:03:26.333Z,1005.32
2016-10-24T08:04:26.412Z,1005.34
2016-10-24T08:05:26.771Z,1005.32
2016-10-24T08:06:26.247Z,1005.36
2016-10-24T08:07:26.230Z,1005.36
2016-10-24T08:08:26.266Z,1005.43
2016-10-24T08:09:26.152Z,1005.39
2016-10-24T08:10:26.121Z,1005.47
2016-10-24T08:11:26.147Z,1005.41
2016-10-24T08:12:26.072Z,1005.47
2016-10-24T08:13:26.091Z,1005.51
2016-10-24T08:14:26.009Z,1005.56
2016-10-24T08:15:25.995Z,1005.64
2016-10-24T08:17:25.917Z,1005.62
2016-10-24T08:18:25.934Z,1005.68
2016-10-24T08:19:25.857Z,1005.68
2016-10-24T08:20:25.850Z,1005.69
2016-10-24T08:21:25.893Z,1005.72
2016-10-24T08:22:25.768Z,1005.71
2016-10-24T08:23:25.737Z,1005.7
2016-10-24T08:24:25.705Z,1005.67
2016-10-24T08:25:25.681Z,1005.6
2016-10-24T08:26:25.655Z,1005.54
2016-10-24T08:27:25.626Z,1005.49
2016-10-24T08:28:25.665Z,1005.43
2016-10-24T08:29:25.564Z,1005.4
2016-10-24T08:30:25.537Z,1005.34
2016-10-24T08:31:25.541Z,1005.32
2016-10-24T08:32:25.481Z,1005.38
2016-10-24T08:33:25.671Z,1005.33
2016-10-24T08:34:25.405Z,1005.3
2016-10-24T08:35:25.387Z,1005.32
2016-10-24T08:37:25.369Z,1005.25
2016-10-24T08:38:25.299Z,1005.28
2016-10-24T08:39:25.265Z,1005.26
2016-10-24T08:40:25.241Z,1005.29
2016-10-24T08:41:25.200Z,1005.27
2016-10-24T08:43:25.164Z,1005.3
2016-10-24T08:44:25.111Z,1005.29
2016-10-24T08:45:25.120Z,1005.3
2016-10-24T08:46:25.053Z,1005.31
2016-10-24T08:47:25.072Z,1005.27
2016-10-24T08:48:24.997Z,1005.28
2016-10-24T08:49:25.014Z,1005.3
2016-10-24T08:50:24.955Z,1005.25
2016-10-24T08:51:24.899Z,1005.3
2016-10-24T08:52:24.917Z,1005.22
2016-10-24T08:53:24.850Z,1005.17
2016-10-24T08:54:24.814Z,1005.08
2016-10-24T08:55:24.812Z,1005.05
2016-10-24T08:56:24.749Z,1005.02
2016-10-24T08:57:24.943Z,1005.03
2016-10-24T08:58:24.690Z,1004.99
2016-10-24T08:59:24.672Z,1004.99
2016-10-24T09:00:24.639Z,1004.94
2016-10-24T09:02:24.669Z,1004.92
2016-10-24T09:03:24.647Z,1004.93
2016-10-24T09:04:24.521Z,1004.92
2016-10-24T09:06:24.473Z,1004.96
2016-10-24T09:08:24.414Z,1005.01
2016-10-24T09:09:24.380Z,1005.05
2016-10-24T09:10:24.337Z,1005.06
2016-10-24T09:11:24.337Z,1005.07
2016-10-24T09:12:24.272Z,1005.04
2016-10-24T09:14:24.361Z,1005.1
2016-10-24T09:15:24.225Z,1005.08
2016-10-24T09:16:24.167Z,1005.05
2016-10-24T09:17:24.129Z,1005.02
2016-10-24T09:18:24.107Z,1005.01
2016-10-24T09:19:24.090Z,1004.97
2016-10-24T09:20:24.049Z,1004.89
2016-10-24T09:21:24.020Z,1004.84
2016-10-24T09:22:24.435Z,1004.84
2016-10-24T09:23:23.951Z,1004.77
2016-10-24T09:24:23.923Z,1004.76
2016-10-24T09:25:23.970Z,1004.69
2016-10-24T09:26:23.862Z,1004.71
2016-10-24T09:27:23.845Z,1004.71
2016-10-24T09:28:23.832Z,1004.71
2016-10-24T09:29:23.772Z,1004.71
2016-10-24T09:30:23.744Z,1004.79
2016-10-24T09:31:23.719Z,1004.85
2016-10-24T09:32:23.693Z,1004.91
2016-10-24T09:33:23.668Z,1004.96
2016-10-24T09:34:23.628Z,1004.99
2016-10-24T09:35:23.592Z,1005.08
2016-10-24T09:36:23.566Z,1005.06
2016-10-24T09:37:23.595Z,1005.04
2016-10-24T09:38:23.528Z,1005.06
2016-10-24T09:39:23.485Z,1005.02
2016-10-24T09:40:23.457Z,1005.07
2016-10-24T09:41:23.417Z,1005.01
2016-10-24T09:42:23.390Z,1005.04
2016-10-24T09:43:23.363Z,1005.01
2016-10-24T09:44:23.326Z,1005.01
2016-10-24T09:45:23.300Z,1004.94
2016-10-24T09:46:23.278Z,1004.94
2016-10-24T09:48:23.292Z,1004.92
2016-10-24T09:49:23.207Z,1004.96
2016-10-24T09:50:23.151Z,1004.9
2016-10-24T09:52:23.095Z,1004.97
2016-10-24T09:53:23.113Z,1005.02
2016-10-24T09:55:23.010Z,1004.97
2016-10-24T09:56:22.971Z,1005.01
2016-10-24T09:57:22.950Z,1005
2016-10-24T09:58:22.929Z,1004.98
2016-10-24T09:59:22.946Z,1004.96
2016-10-24T10:01:24.585Z,1004.89
2016-10-24T10:02:23.023Z,1004.88
2016-10-24T10:03:22.769Z,1004.89
2016-10-24T10:04:22.800Z,1004.88
2016-10-24T10:05:22.708Z,1004.87
2016-10-24T10:06:22.681Z,1004.91
2016-10-24T10:07:22.644Z,1004.86
2016-10-24T10:08:22.665Z,1004.86
2016-10-24T10:09:22.589Z,1004.85
2016-10-24T10:11:22.876Z,1004.85
2016-10-24T10:12:22.502Z,1004.86
2016-10-24T10:13:22.478Z,1004.86
2016-10-24T10:14:22.751Z,1004.83
2016-10-24T10:15:22.414Z,1004.82
2016-10-24T10:16:22.404Z,1004.83
2016-10-24T10:19:22.303Z,1004.85
2016-10-24T10:20:22.263Z,1004.86
2016-10-24T10:21:22.270Z,1004.85
2016-10-24T10:22:22.203Z,1004.86
2016-10-24T10:23:22.196Z,1004.85
2016-10-24T10:25:22.118Z,1004.92
2016-10-24T10:26:22.086Z,1004.88
2016-10-24T10:27:22.053Z,1004.87
2016-10-24T10:28:22.025Z,1004.86
2016-10-24T10:29:21.997Z,1004.84
2016-10-24T10:30:21.969Z,1004.82
2016-10-24T10:31:21.935Z,1004.79
2016-10-24T10:32:21.907Z,1004.87
2016-10-24T10:33:21.886Z,1004.86
2016-10-24T10:34:21.855Z,1004.91
2016-10-24T10:35:21.819Z,1004.87
2016-10-24T10:36:21.798Z,1004.89
2016-10-24T10:37:21.777Z,1004.94
2016-10-24T10:38:21.798Z,1004.99
2016-10-24T10:39:21.723Z,1004.98
2016-10-24T10:40:21.689Z,1004.98
2016-10-24T10:41:21.638Z,1004.96
2016-10-24T10:42:21.620Z,1004.95
2016-10-24T10:43:21.634Z,1004.95
2016-10-24T10:45:21.520Z,1004.94
2016-10-24T10:46:21.538Z,1004.94
2016-10-24T10:47:21.474Z,1004.95
2016-10-24T10:48:21.441Z,1004.95
2016-10-24T10:50:21.384Z,1004.92
2016-10-24T10:51:24.366Z,1004.92
2016-10-24T10:52:21.337Z,1004.96
2016-10-24T10:54:21.309Z,1004.94
2016-10-24T10:55:21.242Z,1004.89
2016-10-24T10:56:21.274Z,1004.88
2016-10-24T10:57:21.186Z,1004.85
2016-10-24T10:58:21.194Z,1004.87
2016-10-24T10:59:21.173Z,1004.79
2016-10-24T11:00:21.083Z,1004.75
2016-10-24T11:01:21.107Z,1004.74
2016-10-24T11:02:21.033Z,1004.71
2016-10-24T11:03:21.109Z,1004.66
2016-10-24T11:04:20.969Z,1004.63
2016-10-24T11:05:20.962Z,1004.61
2016-10-24T11:07:20.961Z,1004.59
2016-10-24T11:08:20.955Z,1004.6
2016-10-24T11:09:20.848Z,1004.54
2016-10-24T11:10:20.904Z,1004.49
2016-10-24T11:11:20.761Z,1004.44
2016-10-24T11:12:20.761Z,1004.41
2016-10-24T11:13:20.768Z,1004.43
2016-10-24T11:14:20.680Z,1004.4
2016-10-24T11:16:20.612Z,1004.35
2016-10-24T11:17:20.602Z,1004.33
2016-10-24T11:18:20.580Z,1004.28
2016-10-24T11:19:20.557Z,1004.26
2016-10-24T11:20:20.495Z,1004.23
2016-10-24T11:21:20.465Z,1004.25
2016-10-24T11:22:20.459Z,1004.23
2016-10-24T11:23:20.408Z,1004.24
2016-10-24T11:25:20.346Z,1004.16
2016-10-24T11:27:20.289Z,1004.17
2016-10-24T11:28:20.298Z,1004.22
2016-10-24T11:29:20.232Z,1004.24
2016-10-24T11:30:20.251Z,1004.29
2016-10-24T11:31:20.171Z,1004.34
2016-10-24T11:32:20.210Z,1004.4
2016-10-24T11:33:20.139Z,1004.46
2016-10-24T11:34:20.120Z,1004.47
2016-10-24T11:35:20.115Z,1004.47
2016-10-24T11:36:20.036Z,1004.45
2016-10-24T11:37:19.994Z,1004.45
2016-10-24T11:38:19.989Z,1004.4
2016-10-24T11:40:20.235Z,1004.34
2016-10-24T11:41:19.948Z,1004.38
2016-10-24T11:42:20.010Z,1004.4
2016-10-24T11:43:19.816Z,1004.4
2016-10-24T11:45:19.762Z,1004.4
2016-10-24T11:46:19.750Z,1004.41
2016-10-24T11:47:19.720Z,1004.42
2016-10-24T11:48:19.728Z,1004.43
2016-10-24T11:49:19.640Z,1004.4
2016-10-24T11:50:19.612Z,1004.41
2016-10-24T11:51:19.596Z,1004.4
2016-10-24T11:52:19.589Z,1004.45
2016-10-24T11:53:19.536Z,1004.42
2016-10-24T11:54:19.548Z,1004.44
2016-10-24T11:55:19.491Z,1004.47
2016-10-24T11:56:19.436Z,1004.47
2016-10-24T11:57:19.417Z,1004.49
2016-10-24T11:58:19.376Z,1004.51
2016-10-24T11:59:19.412Z,1004.5
2016-10-24T12:01:19.498Z,1004.52
2016-10-24T12:02:19.273Z,1004.53
2016-10-24T12:03:19.282Z,1004.53
2016-10-24T12:04:19.252Z,1004.49
2016-10-24T12:05:19.183Z,1004.49
2016-10-24T12:06:19.231Z,1004.47
2016-10-24T12:07:19.125Z,1004.52
2016-10-24T12:08:19.555Z,1004.51
2016-10-24T12:10:19.036Z,1004.51
2016-10-24T12:11:19.007Z,1004.53
2016-10-24T12:12:18.993Z,1004.52
2016-10-24T12:13:18.967Z,1004.52
2016-10-24T12:14:18.983Z,1004.49
2016-10-24T12:15:18.889Z,1004.47
2016-10-24T12:16:18.856Z,1004.48
2016-10-24T12:17:18.843Z,1004.45
2016-10-24T12:18:18.814Z,1004.49
2016-10-24T12:19:19.030Z,1004.5
2016-10-24T12:20:18.743Z,1004.48
2016-10-24T12:21:18.738Z,1004.46
2016-10-24T12:22:18.695Z,1004.46
2016-10-24T12:23:18.662Z,1004.5
2016-10-24T12:24:18.634Z,1004.49
2016-10-24T12:25:18.613Z,1004.48
2016-10-24T12:26:18.566Z,1004.46
2016-10-24T12:27:18.535Z,1004.47
2016-10-24T12:28:18.539Z,1004.48
2016-10-24T12:29:18.476Z,1004.48
2016-10-24T12:30:18.449Z,1004.47
2016-10-24T12:31:18.430Z,1004.48
2016-10-24T12:32:18.390Z,1004.43
2016-10-24T12:33:18.365Z,1004.49
2016-10-24T12:34:18.334Z,1004.48
2016-10-24T12:35:18.301Z,1004.48
2016-10-24T12:36:18.361Z,1004.5
2016-10-24T12:37:18.248Z,1004.46
2016-10-24T12:38:18.221Z,1004.45
2016-10-24T12:39:18.249Z,1004.46
2016-10-24T12:40:18.163Z,1004.46
2016-10-24T12:41:18.128Z,1004.45
2016-10-24T12:42:18.104Z,1004.47
2016-10-24T12:43:18.075Z,1004.48
2016-10-24T12:44:18.056Z,1004.46
2016-10-24T12:45:18.024Z,1004.47
2016-10-24T12:46:18.001Z,1004.45
2016-10-24T12:47:17.957Z,1004.43
2016-10-24T12:48:17.936Z,1004.38
2016-10-24T12:49:17.997Z,1004.41
2016-10-24T12:50:17.877Z,1004.36
2016-10-24T12:51:17.965Z,1004.41
2016-10-24T12:52:17.936Z,1004.44
2016-10-24T12:53:17.781Z,1004.44
2016-10-24T12:54:17.745Z,1004.51
2016-10-24T12:55:17.733Z,1004.51
2016-10-24T12:56:17.819Z,1004.51
2016-10-24T12:58:17.865Z,1004.49
2016-10-24T12:59:17.614Z,1004.48
2016-10-24T13:00:17.638Z,1004.47
2016-10-24T13:01:17.567Z,1004.43
2016-10-24T13:02:17.523Z,1004.43
2016-10-24T13:03:17.488Z,1004.38
2016-10-24T13:04:17.477Z,1004.4
2016-10-24T13:05:17.461Z,1004.37
2016-10-24T13:06:17.462Z,1004.41
2016-10-24T13:07:17.407Z,1004.41
2016-10-24T13:08:17.375Z,1004.41
2016-10-24T13:09:17.312Z,1004.37
2016-10-24T13:10:17.295Z,1004.43
2016-10-24T13:11:17.251Z,1004.42